Ana Sayfa
METAR-TAF:

METAR-TAF

Havaalanları :

Lake Charles, Louisiana, Amerika Birleşik Devletleri

Enlem: 30-13N, Boylam: 093-09W, yükseklik: 4 m

Güncel hava durumu gözlemi

Rapor saat 04:55 UTC de 28 dakika önce yapıldı.
Sakin rüzgar
Sıcaklık 24°C
Nem 94%
Basınç 1015 hPa
Görüş mesafesi: 16.1 km
Açık gökyüzü

METAR: KCWF 220455Z AUTO 00000KT 10SM CLR 24/23 A2997 RMK AO2 T02430232

Saat: 00:23 (05:23 UTC)


TAF: eksik

4.000'den fazla havaalanı için hava durumu gözlemleri ve tahminleri (METAR ve TAF raporları).

Kullanılabilir istasyonlar harita üzerinde sarı ve kırmızı noktalarla gösterilir.

İstasyonun adını görmek için fareyi noktanın üzerinde gezdirin.

Sonrasında hava gözlem ve tahminlerini görmek için tıklayın.

Haritayı değiştirmek için: yaklaştırmak için siyah artı işaretli yeşil düğmeye ve uzaklaştırmak için de eksi işaretli düğmeye hızla tıklayın; bitişik haritalar için yeşil okları kullanın.


METAR-TAF: